Weather at Abraham Lincoln Capital Airport

Public forecast

Using degrees Fahrenheit for public forecast. Weather courtesy of forecast.io.

Current aviation weather report (METAR) for Abraham Lincoln Capital Airport

2024/05/19 20:52 (retrieved 39 minutes ago)

KSPI 192052Z 19012KT 10SM SCT050 32/18 A2991 RMK AO2 SLPNO T03220178 58011

Aviation forecast (TAF) for Abraham Lincoln Capital Airport

2024/05/19 18:22 Ammendment (retrieved 3 hours ago)

TAF KSPI 191720Z 1918/2018 21005KT P6SM SKC FM192000 20006KT P6SM VCSH SCT050 FM200100 15007KT P6SM BKN250 FM201400 19012G20KT P6SM SCT250 AMD NOT SKED 2004/2011